createdAt,value
2023-04-28T00:00:13.572Z,101482.81
2023-04-28T00:02:59.178Z,101493.31
2023-04-28T00:05:44.934Z,101499.31
2023-04-28T00:08:30.462Z,101495.03
2023-04-28T00:11:15.852Z,101492.00
2023-04-28T00:14:01.494Z,101491.63
2023-04-28T00:16:46.917Z,101484.00
2023-04-28T00:19:32.589Z,101482.16
2023-04-28T00:22:18.695Z,101484.69
2023-04-28T00:25:05.183Z,101484.53
2023-04-28T00:27:51.173Z,101483.69
2023-04-28T00:30:36.834Z,101481.03
2023-04-28T00:33:22.425Z,101473.28
2023-04-28T00:36:08.620Z,101486.34
2023-04-28T00:38:53.957Z,101475.84
2023-04-28T00:41:39.734Z,101469.81
2023-04-28T00:44:25.163Z,101466.38
2023-04-28T00:47:11.708Z,101464.78
2023-04-28T00:49:57.776Z,101465.16
2023-04-28T00:52:43.361Z,101462.31
2023-04-28T00:55:31.962Z,101455.78
2023-04-28T00:58:17.638Z,101456.81
2023-04-28T01:01:07.920Z,101453.41
2023-04-28T01:03:53.825Z,101450.13
2023-04-28T01:06:41.593Z,101455.53
2023-04-28T01:09:27.074Z,101448.59
2023-04-28T01:12:12.586Z,101443.44
2023-04-28T01:14:58.608Z,101441.59
2023-04-28T01:17:45.780Z,101445.09
2023-04-28T01:20:31.352Z,101441.66
2023-04-28T01:23:17.700Z,101426.13
2023-04-28T01:26:03.224Z,101439.25
2023-04-28T01:28:48.688Z,101436.91
2023-04-28T01:31:34.036Z,101431.81
2023-04-28T01:34:19.816Z,101442.25
2023-04-28T01:37:05.229Z,101422.50
2023-04-28T01:39:50.597Z,101438.16
2023-04-28T01:42:36.269Z,101431.41
2023-04-28T01:45:21.647Z,101417.78
2023-04-28T01:48:07.131Z,101429.03
2023-04-28T01:50:52.864Z,101427.38
2023-04-28T01:53:38.276Z,101420.50
2023-04-28T01:56:24.070Z,101423.09
2023-04-28T01:59:09.379Z,101420.50
2023-04-28T02:01:54.937Z,101424.00
2023-04-28T02:04:40.818Z,101431.75
2023-04-28T02:07:26.333Z,101417.84
2023-04-28T02:10:12.000Z,101417.75
2023-04-28T02:12:57.394Z,101419.44
2023-04-28T02:15:43.312Z,101411.72
2023-04-28T02:18:28.738Z,101417.72
2023-04-28T02:21:14.123Z,101422.09
2023-04-28T02:23:59.633Z,101410.91
2023-04-28T02:26:45.015Z,101403.19
2023-04-28T02:29:30.822Z,101406.63
2023-04-28T02:32:16.263Z,101406.56
2023-04-28T02:35:02.099Z,101399.50
2023-04-28T02:37:47.485Z,101401.81
2023-04-28T02:40:33.002Z,101393.94
2023-04-28T02:43:18.623Z,101388.59
2023-04-28T02:46:04.585Z,101398.03
2023-04-28T02:48:49.932Z,101403.16
2023-04-28T02:51:35.511Z,101386.78
2023-04-28T02:54:29.411Z,101380.81
2023-04-28T02:57:15.061Z,101381.72
2023-04-28T03:00:00.630Z,101385.94
2023-04-28T03:02:48.738Z,101372.13
2023-04-28T03:05:34.311Z,101379.06
2023-04-28T03:08:20.903Z,101378.09
2023-04-28T03:11:06.344Z,101366.00
2023-04-28T03:13:51.722Z,101360.78
2023-04-28T03:16:38.289Z,101368.44
2023-04-28T03:19:24.245Z,101356.31
2023-04-28T03:22:09.966Z,101358.88
2023-04-28T03:24:55.710Z,101349.34
2023-04-28T03:27:41.247Z,101350.19
2023-04-28T03:30:26.985Z,101339.81
2023-04-28T03:33:12.549Z,101345.84
2023-04-28T03:35:57.813Z,101350.97
2023-04-28T03:38:43.866Z,101342.31
2023-04-28T03:41:29.349Z,101344.97
2023-04-28T03:44:15.162Z,101341.50
2023-04-28T03:47:01.406Z,101323.56
2023-04-28T03:49:46.729Z,101328.63
2023-04-28T03:52:32.359Z,101328.66
2023-04-28T03:55:17.922Z,101330.41
2023-04-28T03:58:03.600Z,101323.56
2023-04-28T04:00:49.203Z,101320.06
2023-04-28T04:03:34.834Z,101322.66
2023-04-28T04:06:21.973Z,101312.19
2023-04-28T04:09:07.178Z,101327.66
2023-04-28T04:11:52.906Z,101325.13
2023-04-28T04:14:38.435Z,101313.75
2023-04-28T04:17:24.053Z,101305.91
2023-04-28T04:20:10.023Z,101306.72
2023-04-28T04:22:55.492Z,101298.91
2023-04-28T04:25:41.114Z,101298.75
2023-04-28T04:28:26.630Z,101297.88
2023-04-28T04:31:12.355Z,101286.53
2023-04-28T04:33:58.009Z,101285.53
2023-04-28T04:36:44.136Z,101286.22
2023-04-28T04:39:29.707Z,101280.09
2023-04-28T04:42:25.013Z,101296.41
2023-04-28T04:45:12.164Z,101288.56
2023-04-28T04:47:58.054Z,101280.53
2023-04-28T04:50:44.401Z,101276.09
2023-04-28T04:53:29.865Z,101288.03
2023-04-28T04:56:15.415Z,101287.91
2023-04-28T04:59:00.876Z,101285.19
2023-04-28T05:01:47.242Z,101280.63
2023-04-28T05:04:32.852Z,101259.56
2023-04-28T05:07:18.545Z,101270.50
2023-04-28T05:10:04.548Z,101260.72
2023-04-28T05:12:50.523Z,101262.91
2023-04-28T05:15:36.098Z,101265.78
2023-04-28T05:18:21.724Z,101255.00
2023-04-28T05:21:07.128Z,101260.50
2023-04-28T05:23:53.724Z,101247.03
2023-04-28T05:26:39.160Z,101255.28
2023-04-28T05:29:24.976Z,101244.84
2023-04-28T05:32:10.595Z,101248.00
2023-04-28T05:34:56.492Z,101239.34
2023-04-28T05:37:43.559Z,101230.75
2023-04-28T05:40:29.133Z,101240.69
2023-04-28T05:43:14.736Z,101233.47
2023-04-28T05:46:00.764Z,101217.03
2023-04-28T05:48:46.949Z,101220.59
2023-04-28T05:51:33.591Z,101216.69
2023-04-28T05:54:19.176Z,101220.44
2023-04-28T05:57:05.111Z,101216.28
2023-04-28T05:59:50.658Z,101220.56
2023-04-28T06:02:36.192Z,101214.81
2023-04-28T06:05:22.902Z,101217.56
2023-04-28T06:08:08.877Z,101214.34
2023-04-28T06:10:54.248Z,101217.56
2023-04-28T06:13:39.717Z,101216.50
2023-04-28T06:16:25.653Z,101214.59
2023-04-28T06:19:11.749Z,101224.38
2023-04-28T06:21:57.162Z,101206.66
2023-04-28T06:24:44.003Z,101218.06
2023-04-28T06:27:32.676Z,101214.31
2023-04-28T06:30:20.341Z,101206.72
2023-04-28T06:33:05.645Z,101198.50
2023-04-28T06:35:51.866Z,101201.59
2023-04-28T06:38:37.487Z,101199.91
2023-04-28T06:41:23.175Z,101200.56
2023-04-28T06:44:08.737Z,101204.94
2023-04-28T06:46:54.292Z,101194.56
2023-04-28T06:49:39.844Z,101185.06
2023-04-28T06:52:36.815Z,101193.34
2023-04-28T06:55:24.850Z,101186.94
2023-04-28T06:58:11.288Z,101180.84
2023-04-28T07:00:56.585Z,101181.41
2023-04-28T07:03:42.176Z,101177.03
2023-04-28T07:06:28.571Z,101179.19
2023-04-28T07:09:15.861Z,101163.41
2023-04-28T07:12:01.739Z,101152.50
2023-04-28T07:14:47.372Z,101145.63
2023-04-28T07:17:32.784Z,101150.59
2023-04-28T07:20:18.348Z,101152.44
2023-04-28T07:23:03.742Z,101152.78
2023-04-28T07:25:49.283Z,101147.97
2023-04-28T07:28:34.939Z,101144.06
2023-04-28T07:31:21.741Z,101126.16
2023-04-28T07:34:07.573Z,101142.72
2023-04-28T07:36:53.134Z,101134.13
2023-04-28T07:39:40.419Z,101143.63
2023-04-28T07:42:26.054Z,101134.31
2023-04-28T07:45:11.782Z,101139.19
2023-04-28T07:47:57.621Z,101134.75
2023-04-28T07:50:43.284Z,101115.50
2023-04-28T07:53:29.084Z,101135.91
2023-04-28T07:56:14.571Z,101133.75
2023-04-28T07:59:00.357Z,101129.59
2023-04-28T08:01:46.430Z,101102.50
2023-04-28T08:04:33.947Z,101104.31
2023-04-28T08:07:20.400Z,101096.09
2023-04-28T08:10:06.480Z,101108.75
2023-04-28T08:12:51.875Z,101107.66
2023-04-28T08:15:37.534Z,101105.03
2023-04-28T08:18:23.563Z,101102.50
2023-04-28T08:21:09.869Z,101105.03
2023-04-28T08:23:55.311Z,101108.44
2023-04-28T08:26:40.733Z,101098.94
2023-04-28T08:29:26.943Z,101094.34
2023-04-28T08:32:12.276Z,101092.63
2023-04-28T08:34:57.774Z,101097.03
2023-04-28T08:37:43.353Z,101098.50
2023-04-28T08:40:31.253Z,101104.22
2023-04-28T08:43:16.739Z,101094.09
2023-04-28T08:46:07.630Z,101097.50
2023-04-28T08:48:59.509Z,101095.44
2023-04-28T08:51:57.425Z,101106.81
2023-04-28T08:54:44.184Z,101081.66
2023-04-28T08:57:39.230Z,101072.13
2023-04-28T09:00:25.234Z,101083.00
2023-04-28T09:03:11.122Z,101074.41
2023-04-28T09:05:57.176Z,101077.91
2023-04-28T09:08:42.914Z,101076.78
2023-04-28T09:11:28.508Z,101064.13
2023-04-28T09:14:14.400Z,101057.28
2023-04-28T09:17:00.783Z,101053.31
2023-04-28T09:19:46.594Z,101047.09
2023-04-28T09:22:33.085Z,101051.44
2023-04-28T09:25:21.221Z,101063.16
2023-04-28T09:28:22.865Z,101051.69
2023-04-28T09:31:23.164Z,101037.34
2023-04-28T09:34:09.168Z,101034.69
2023-04-28T09:36:54.649Z,101054.75
2023-04-28T09:39:40.394Z,101033.00
2023-04-28T09:42:38.604Z,101034.84
2023-04-28T09:45:24.619Z,101022.41
2023-04-28T09:48:13.555Z,101034.56
2023-04-28T09:51:00.989Z,101029.84
2023-04-28T09:53:47.389Z,101024.78
2023-04-28T09:56:40.842Z,101020.41
2023-04-28T09:59:28.516Z,101017.47
2023-04-28T10:02:42.073Z,101024.41
2023-04-28T10:05:25.496Z,101022.81
2023-04-28T10:08:13.274Z,101014.25
2023-04-28T10:10:59.180Z,101004.44
2023-04-28T10:13:45.989Z,100995.59
2023-04-28T10:16:32.992Z,100997.19
2023-04-28T10:19:18.831Z,100994.78
2023-04-28T10:22:46.015Z,100990.66
2023-04-28T10:25:35.214Z,100992.31
2023-04-28T10:28:20.844Z,100973.28
2023-04-28T10:34:23.077Z,100988.22
2023-04-28T10:37:11.491Z,100988.91
2023-04-28T10:40:32.073Z,100982.63
2023-04-28T10:43:30.526Z,100971.91
2023-04-28T10:46:16.527Z,100963.13
2023-04-28T10:49:02.641Z,100963.66
2023-04-28T10:51:48.007Z,100961.41
2023-04-28T10:54:33.560Z,100957.94
2023-04-28T10:57:19.861Z,100947.72
2023-04-28T11:00:28.414Z,100958.16
2023-04-28T11:03:38.904Z,100949.63
2023-04-28T11:06:35.437Z,100953.41
2023-04-28T11:09:21.156Z,100961.47
2023-04-28T11:12:10.508Z,100953.00
2023-04-28T11:14:56.293Z,100954.06
2023-04-28T11:17:42.202Z,100962.50
2023-04-28T11:20:29.023Z,100943.84
2023-04-28T11:23:14.718Z,100955.31
2023-04-28T11:26:01.138Z,100941.72
2023-04-28T11:28:50.935Z,100945.03
2023-04-28T11:31:36.534Z,100942.03
2023-04-28T11:34:22.384Z,100937.00
2023-04-28T11:37:09.116Z,100934.72
2023-04-28T11:39:54.595Z,100918.66
2023-04-28T11:42:51.436Z,100930.53
2023-04-28T11:45:37.572Z,100922.03
2023-04-28T11:48:23.378Z,100923.41
2023-04-28T11:51:09.621Z,100927.31
2023-04-28T11:53:55.032Z,100922.34
2023-04-28T11:56:42.349Z,100924.22
2023-04-28T11:59:30.738Z,100921.88
2023-04-28T12:02:17.881Z,100931.94
2023-04-28T12:05:07.702Z,100920.94
2023-04-28T12:07:53.410Z,100925.03
2023-04-28T12:10:38.732Z,100926.94
2023-04-28T12:13:24.185Z,100915.50
2023-04-28T12:16:09.735Z,100914.38
2023-04-28T12:18:59.281Z,100898.06
2023-04-28T12:21:59.807Z,100902.03
2023-04-28T12:24:46.106Z,100893.94
2023-04-28T12:27:32.119Z,100898.78
2023-04-28T12:30:20.779Z,100901.94
2023-04-28T12:33:20.856Z,100898.09
2023-04-28T12:36:06.670Z,100888.41
2023-04-28T12:38:52.574Z,100870.13
2023-04-28T12:41:38.650Z,100878.94
2023-04-28T12:44:24.223Z,100879.88
2023-04-28T12:47:11.116Z,100882.97
2023-04-28T12:49:56.632Z,100875.00
2023-04-28T12:52:42.105Z,100876.94
2023-04-28T12:55:29.300Z,100882.38
2023-04-28T12:58:15.007Z,100865.56
2023-04-28T13:01:00.509Z,100866.44
2023-04-28T13:03:47.670Z,100875.69
2023-04-28T13:06:33.290Z,100863.19
2023-04-28T13:09:18.717Z,100862.31
2023-04-28T13:12:04.868Z,100843.19
2023-04-28T13:14:51.041Z,100848.19
2023-04-28T13:17:36.624Z,100840.28
2023-04-28T13:20:22.215Z,100832.38
2023-04-28T13:23:07.730Z,100828.94
2023-04-28T13:25:53.002Z,100832.47
2023-04-28T13:28:38.696Z,100820.81
2023-04-28T13:31:24.715Z,100819.81
2023-04-28T13:34:15.700Z,100818.91
2023-04-28T13:37:01.151Z,100810.44
2023-04-28T13:39:46.961Z,100806.50
2023-04-28T13:42:32.261Z,100805.31
2023-04-28T13:45:18.239Z,100809.53
2023-04-28T13:48:04.788Z,100805.88
2023-04-28T13:50:50.159Z,100801.72
2023-04-28T13:53:38.246Z,100811.53
2023-04-28T13:56:24.180Z,100802.72
2023-04-28T13:59:09.807Z,100806.75
2023-04-28T14:01:55.669Z,100808.00
2023-04-28T14:04:48.245Z,100803.16
2023-04-28T14:07:34.281Z,100802.44
2023-04-28T14:10:19.779Z,100792.41
2023-04-28T14:13:05.165Z,100800.13
2023-04-28T14:15:59.194Z,100792.41
2023-04-28T14:18:45.477Z,100797.47
2023-04-28T14:21:31.068Z,100791.09
2023-04-28T14:24:16.491Z,100804.94
2023-04-28T14:27:01.835Z,100790.81
2023-04-28T14:29:50.849Z,100788.63
2023-04-28T14:32:39.794Z,100780.69
2023-04-28T14:35:25.490Z,100788.19
2023-04-28T14:38:10.987Z,100775.25
2023-04-28T14:40:56.601Z,100785.53
2023-04-28T14:43:41.900Z,100779.13
2023-04-28T14:46:27.561Z,100775.25
2023-04-28T14:49:12.876Z,100776.34
2023-04-28T14:52:00.000Z,100771.72
2023-04-28T14:54:45.581Z,100773.63
2023-04-28T14:57:31.709Z,100763.66
2023-04-28T15:00:17.632Z,100744.84
2023-04-28T15:03:03.989Z,100745.63
2023-04-28T15:05:49.488Z,100746.59
2023-04-28T15:08:37.703Z,100754.88
2023-04-28T15:11:23.517Z,100746.84
2023-04-28T15:14:08.749Z,100748.72
2023-04-28T15:16:54.517Z,100757.84
2023-04-28T15:19:40.025Z,100744.81
2023-04-28T15:22:25.776Z,100749.50
2023-04-28T15:25:11.613Z,100739.78
2023-04-28T15:27:57.133Z,100734.13
2023-04-28T15:30:43.295Z,100745.03
2023-04-28T15:33:28.996Z,100736.75
2023-04-28T15:36:14.603Z,100737.22
2023-04-28T15:39:00.153Z,100742.56
2023-04-28T15:41:45.643Z,100739.47
2023-04-28T15:44:31.098Z,100742.31
2023-04-28T15:47:16.589Z,100736.31
2023-04-28T15:50:02.275Z,100732.09
2023-04-28T15:52:49.836Z,100736.41
2023-04-28T15:55:36.048Z,100736.91
2023-04-28T15:58:21.865Z,100730.41
2023-04-28T16:01:07.470Z,100736.72
2023-04-28T16:03:53.259Z,100728.81
2023-04-28T16:06:39.130Z,100725.66
2023-04-28T16:09:24.397Z,100727.22
2023-04-28T16:12:10.038Z,100724.66
2023-04-28T16:14:56.124Z,100724.16
2023-04-28T16:17:41.751Z,100719.81
2023-04-28T16:20:27.939Z,100727.00
2023-04-28T16:23:14.225Z,100720.22
2023-04-28T16:26:00.241Z,100718.22
2023-04-28T16:28:45.947Z,100710.75
2023-04-28T16:31:32.495Z,100713.69
2023-04-28T16:34:19.354Z,100703.75
2023-04-28T16:37:06.474Z,100710.53
2023-04-28T16:39:52.487Z,100698.47
2023-04-28T16:42:38.309Z,100690.00
2023-04-28T16:45:23.887Z,100682.06
2023-04-28T16:48:09.466Z,100686.44
2023-04-28T16:50:54.948Z,100685.69
2023-04-28T16:53:40.537Z,100683.47
2023-04-28T16:56:26.254Z,100691.81
2023-04-28T16:59:11.616Z,100676.13
2023-04-28T17:01:58.025Z,100676.66
2023-04-28T17:04:43.449Z,100679.91
2023-04-28T17:07:29.038Z,100679.19
2023-04-28T17:10:14.602Z,100678.09
2023-04-28T17:13:00.413Z,100687.94
2023-04-28T17:15:46.013Z,100691.22
2023-04-28T17:18:31.586Z,100698.16
2023-04-28T17:21:17.708Z,100693.72
2023-04-28T17:24:03.238Z,100699.72
2023-04-28T17:26:49.837Z,100689.63
2023-04-28T17:29:35.316Z,100676.69
2023-04-28T17:32:20.685Z,100689.31
2023-04-28T17:35:06.812Z,100691.66
2023-04-28T17:37:52.187Z,100680.16
2023-04-28T17:40:37.837Z,100671.31
2023-04-28T17:43:25.394Z,100674.47
2023-04-28T17:46:12.233Z,100673.34
2023-04-28T17:48:59.552Z,100668.06
2023-04-28T17:51:45.098Z,100676.53
2023-04-28T17:54:32.050Z,100687.72
2023-04-28T17:57:18.229Z,100682.75
2023-04-28T18:00:03.723Z,100681.13
2023-04-28T18:02:49.112Z,100677.56
2023-04-28T18:05:36.120Z,100684.84
2023-04-28T18:08:21.953Z,100682.41
2023-04-28T18:11:09.827Z,100689.13
2023-04-28T18:13:55.319Z,100694.09
2023-04-28T18:16:41.235Z,100705.38
2023-04-28T18:19:28.500Z,100715.94
2023-04-28T18:22:13.787Z,100700.00
2023-04-28T18:24:59.714Z,100689.34
2023-04-28T18:27:45.706Z,100693.72
2023-04-28T18:30:40.053Z,100682.63
2023-04-28T18:33:28.381Z,100683.31
2023-04-28T18:36:13.946Z,100685.88
2023-04-28T18:38:59.585Z,100670.59
2023-04-28T18:41:45.077Z,100684.31
2023-04-28T18:44:31.137Z,100679.44
2023-04-28T18:47:17.034Z,100687.31
2023-04-28T18:50:03.599Z,100688.84
2023-04-28T18:52:49.011Z,100678.38
2023-04-28T18:55:34.683Z,100678.38
2023-04-28T18:58:20.156Z,100678.38
2023-04-28T19:01:05.905Z,52551.44
2023-04-28T19:03:52.443Z,52551.44
2023-04-28T19:06:38.121Z,52551.44
2023-04-28T19:09:23.521Z,52551.44
2023-04-28T19:12:09.060Z,52551.44
2023-04-28T19:14:55.446Z,52551.44
2023-04-28T19:17:40.844Z,52551.44
2023-04-28T19:20:26.611Z,52551.44
2023-04-28T19:23:12.252Z,52551.44
2023-04-28T19:25:58.898Z,52551.44
2023-04-28T19:28:44.717Z,52551.44
2023-04-28T19:31:30.147Z,52551.44
2023-04-28T19:34:15.788Z,52551.44
2023-04-28T19:37:01.500Z,52551.44
2023-04-28T19:39:47.940Z,52551.44
2023-04-28T19:42:35.039Z,52551.44
2023-04-28T19:45:20.758Z,52551.44
2023-04-28T19:48:06.863Z,52551.44
2023-04-28T19:50:52.321Z,52551.44
2023-04-28T19:53:40.515Z,52551.44
2023-04-28T19:56:26.553Z,52551.44
2023-04-28T19:59:11.965Z,52551.44
2023-04-28T20:01:57.603Z,52551.44
2023-04-28T20:04:43.440Z,52551.44
2023-04-28T20:07:29.151Z,52551.44
2023-04-28T20:10:15.618Z,52551.44
2023-04-28T20:13:02.672Z,52551.44
2023-04-28T20:15:48.562Z,52551.44
2023-04-28T20:18:35.495Z,52551.44
2023-04-28T20:21:21.211Z,52551.44
2023-04-28T20:24:07.191Z,52551.44
2023-04-28T20:26:54.393Z,52551.44
2023-04-28T20:29:40.299Z,52551.44
2023-04-28T20:32:25.853Z,52551.44
2023-04-28T20:35:11.897Z,52551.44
2023-04-28T20:37:57.893Z,52551.44
2023-04-28T20:40:44.848Z,52551.44
2023-04-28T20:43:30.308Z,52551.44
2023-04-28T20:46:16.475Z,52551.44
2023-04-28T20:49:02.181Z,52551.44
2023-04-28T20:51:47.812Z,52551.44
2023-04-28T20:54:35.791Z,52551.44
2023-04-28T20:57:21.470Z,52551.44
2023-04-28T21:00:08.646Z,52551.44
2023-04-28T21:02:54.398Z,52551.44
2023-04-28T21:05:40.033Z,52551.44
2023-04-28T21:08:26.226Z,52551.44
2023-04-28T21:11:13.058Z,52551.44
2023-04-28T21:13:58.524Z,52551.44
2023-04-28T21:16:44.265Z,52551.44
2023-04-28T21:19:30.594Z,52551.44
2023-04-28T21:22:16.542Z,52551.44
2023-04-28T21:25:01.998Z,52551.44
2023-04-28T21:27:47.566Z,52551.44
2023-04-28T21:30:33.001Z,52551.44
2023-04-28T21:33:18.389Z,52551.44
2023-04-28T21:36:08.986Z,52551.44
2023-04-28T21:38:54.784Z,52551.44
2023-04-28T21:41:40.312Z,52551.44
2023-04-28T21:44:25.946Z,52551.44
2023-04-28T21:47:11.563Z,52551.44
2023-04-28T21:49:57.466Z,52551.44
2023-04-28T21:52:43.062Z,52551.44
2023-04-28T21:55:28.538Z,52551.44
2023-04-28T21:58:13.962Z,52551.44
2023-04-28T22:00:59.812Z,52551.44
2023-04-28T22:03:47.641Z,52551.44
2023-04-28T22:06:33.421Z,52551.44
2023-04-28T22:09:18.794Z,52551.44
2023-04-28T22:12:04.585Z,52551.44
2023-04-28T22:14:50.184Z,52551.44
2023-04-28T22:17:35.794Z,52551.44
2023-04-28T22:20:21.396Z,52551.44
2023-04-28T22:23:06.677Z,52551.44
2023-04-28T22:25:52.272Z,52551.44
2023-04-28T22:28:37.734Z,52551.44
2023-04-28T22:31:23.159Z,52551.44
2023-04-28T22:34:09.957Z,52551.44
2023-04-28T22:36:55.309Z,52551.44
2023-04-28T22:39:40.829Z,52551.44
2023-04-28T22:42:26.144Z,52551.44
2023-04-28T22:45:12.049Z,52551.44
2023-04-28T22:47:57.725Z,52551.44
2023-04-28T22:50:45.972Z,52551.44
2023-04-28T22:53:31.527Z,52551.44
2023-04-28T22:56:17.119Z,52551.44
2023-04-28T22:59:03.009Z,52551.44
2023-04-28T23:01:48.895Z,52551.44
2023-04-28T23:04:34.801Z,52551.44
2023-04-28T23:07:20.580Z,52551.44
2023-04-28T23:10:07.555Z,52551.44
2023-04-28T23:12:53.120Z,52551.44
2023-04-28T23:15:38.370Z,52551.44
2023-04-28T23:18:23.881Z,52551.44
2023-04-28T23:21:09.804Z,52551.44
2023-04-28T23:23:55.292Z,52551.44
2023-04-28T23:26:41.111Z,52551.44
2023-04-28T23:29:26.606Z,52551.44
2023-04-28T23:32:12.715Z,52551.44
2023-04-28T23:34:58.845Z,52551.44
2023-04-28T23:37:44.497Z,52551.44
2023-04-28T23:40:30.149Z,52551.44
2023-04-28T23:43:15.508Z,52551.44
2023-04-28T23:46:01.229Z,52551.44
2023-04-28T23:48:46.687Z,52551.44
2023-04-28T23:51:32.318Z,52551.44
2023-04-28T23:54:17.772Z,52551.44
2023-04-28T23:57:03.400Z,52551.44
2023-04-28T23:59:48.983Z,52551.44
